createdAt,value
2023-03-16T00:01:16.765Z,22.58
2023-03-16T00:03:43.899Z,21.58
2023-03-16T00:06:17.196Z,19.73
2023-03-16T00:08:44.553Z,21.42
2023-03-16T00:11:12.218Z,21.63
2023-03-16T00:13:39.350Z,20.60
2023-03-16T00:16:07.681Z,19.95
2023-03-16T00:18:39.025Z,20.52
2023-03-16T00:21:06.771Z,21.20
2023-03-16T00:23:36.009Z,20.25
2023-03-16T00:26:04.528Z,21.55
2023-03-16T00:28:35.355Z,23.98
2023-03-16T00:31:07.557Z,20.80
2023-03-16T00:33:37.611Z,22.05
2023-03-16T00:36:08.255Z,21.65
2023-03-16T00:38:36.719Z,20.52
2023-03-16T00:41:04.949Z,22.33
2023-03-16T00:43:40.693Z,19.75
2023-03-16T00:46:12.467Z,106.60
2023-03-16T00:48:42.468Z,77.60
2023-03-16T00:51:12.886Z,34.35
2023-03-16T00:53:41.075Z,20.38
2023-03-16T00:56:08.631Z,19.65
2023-03-16T00:58:36.610Z,18.63
2023-03-16T01:01:08.119Z,18.67
2023-03-16T01:03:35.838Z,16.10
2023-03-16T01:06:07.016Z,16.00
2023-03-16T01:08:39.892Z,19.00
2023-03-16T01:11:08.776Z,15.48
2023-03-16T01:13:35.918Z,17.67
2023-03-16T01:16:04.088Z,16.33
2023-03-16T01:18:34.251Z,19.58
2023-03-16T01:21:03.476Z,18.50
2023-03-16T01:23:31.387Z,17.92
2023-03-16T01:25:59.261Z,19.27
2023-03-16T01:28:27.723Z,17.17
2023-03-16T01:30:57.665Z,18.45
2023-03-16T01:33:25.848Z,22.67
2023-03-16T01:35:56.673Z,23.10
2023-03-16T01:38:24.414Z,19.88
2023-03-16T01:40:52.188Z,24.60
2023-03-16T01:43:20.220Z,21.60
2023-03-16T01:46:08.204Z,24.58
2023-03-16T01:48:44.601Z,27.15
2023-03-16T01:51:25.483Z,26.25
2023-03-16T01:53:55.644Z,26.65
2023-03-16T01:56:25.750Z,28.13
2023-03-16T01:58:54.124Z,26.08
2023-03-16T02:01:21.313Z,26.92
2023-03-16T02:03:48.449Z,28.55
2023-03-16T02:06:18.076Z,28.60
2023-03-16T02:08:46.061Z,26.42
2023-03-16T02:11:18.042Z,27.55
2023-03-16T02:13:46.253Z,25.45
2023-03-16T02:16:19.331Z,26.08
2023-03-16T02:18:47.690Z,28.17
2023-03-16T02:21:20.877Z,25.98
2023-03-16T02:23:50.706Z,25.77
2023-03-16T02:26:22.893Z,22.05
2023-03-16T02:29:07.724Z,24.35
2023-03-16T02:31:35.239Z,22.33
2023-03-16T02:34:02.701Z,24.45
2023-03-16T02:36:30.314Z,24.83
2023-03-16T02:38:57.405Z,22.48
2023-03-16T02:41:24.549Z,21.63
2023-03-16T02:43:54.429Z,22.40
2023-03-16T02:46:23.987Z,23.95
2023-03-16T02:49:04.213Z,18.85
2023-03-16T02:51:32.349Z,20.42
2023-03-16T02:53:59.604Z,19.58
2023-03-16T02:56:26.764Z,18.05
2023-03-16T02:58:54.108Z,21.90
2023-03-16T03:01:21.668Z,18.05
2023-03-16T03:03:48.795Z,20.13
2023-03-16T03:06:15.869Z,21.63
2023-03-16T03:08:42.993Z,18.77
2023-03-16T03:11:11.270Z,17.15
2023-03-16T03:13:39.241Z,15.93
2023-03-16T03:16:06.600Z,16.15
2023-03-16T03:18:34.824Z,16.55
2023-03-16T03:21:01.995Z,18.80
2023-03-16T03:23:29.091Z,17.27
2023-03-16T03:26:00.013Z,15.90
2023-03-16T03:28:27.380Z,17.40
2023-03-16T03:30:54.598Z,18.90
2023-03-16T03:33:24.592Z,15.15
2023-03-16T03:35:58.771Z,17.10
2023-03-16T03:38:26.438Z,16.20
2023-03-16T03:40:54.521Z,14.20
2023-03-16T03:43:22.419Z,17.08
2023-03-16T03:45:49.623Z,16.35
2023-03-16T03:48:16.787Z,17.90
2023-03-16T03:50:43.933Z,16.60
2023-03-16T03:53:11.151Z,12.55
2023-03-16T03:55:38.285Z,15.70
2023-03-16T03:58:05.367Z,16.08
2023-03-16T04:00:32.467Z,12.57
2023-03-16T04:02:59.764Z,15.20
2023-03-16T04:05:27.541Z,16.75
2023-03-16T04:07:57.320Z,18.52
2023-03-16T04:10:25.341Z,17.17
2023-03-16T04:12:52.520Z,15.75
2023-03-16T04:15:20.172Z,15.32
2023-03-16T04:17:47.315Z,17.45
2023-03-16T04:20:14.700Z,19.50
2023-03-16T04:22:42.954Z,23.48
2023-03-16T04:25:11.559Z,20.98
2023-03-16T04:27:38.831Z,17.52
2023-03-16T04:30:06.805Z,17.35
2023-03-16T04:32:34.887Z,17.98
2023-03-16T04:35:02.112Z,20.80
2023-03-16T04:37:29.426Z,19.15
2023-03-16T04:39:56.593Z,19.25
2023-03-16T04:42:23.771Z,21.40
2023-03-16T04:44:50.841Z,17.38
2023-03-16T04:47:18.067Z,20.98
2023-03-16T04:49:45.695Z,17.10
2023-03-16T04:52:12.963Z,18.48
2023-03-16T04:54:40.124Z,17.65
2023-03-16T04:57:08.466Z,17.45
2023-03-16T04:59:35.640Z,17.35
2023-03-16T05:02:04.050Z,20.75
2023-03-16T05:04:31.163Z,21.92
2023-03-16T05:06:58.224Z,20.63
2023-03-16T05:09:25.872Z,26.05
2023-03-16T05:11:52.971Z,23.75
2023-03-16T05:14:20.104Z,23.02
2023-03-16T05:16:47.188Z,22.30
2023-03-16T05:19:14.300Z,24.60
2023-03-16T05:21:41.600Z,22.70
2023-03-16T05:24:09.187Z,31.13
2023-03-16T05:26:36.333Z,28.20
2023-03-16T05:29:03.467Z,24.35
2023-03-16T05:31:33.969Z,24.98
2023-03-16T05:34:02.359Z,23.05
2023-03-16T05:36:29.473Z,21.95
2023-03-16T05:38:56.628Z,21.67
2023-03-16T05:41:23.865Z,22.67
2023-03-16T05:43:50.994Z,22.25
2023-03-16T05:46:20.664Z,25.35
2023-03-16T05:48:48.007Z,24.80
2023-03-16T05:51:15.196Z,21.00
2023-03-16T05:53:42.354Z,20.55
2023-03-16T05:56:09.726Z,22.42
2023-03-16T05:58:37.049Z,20.92
2023-03-16T06:01:05.729Z,22.40
2023-03-16T06:03:32.876Z,24.33
2023-03-16T06:05:59.963Z,20.80
2023-03-16T06:08:27.330Z,18.67
2023-03-16T06:10:54.473Z,18.92
2023-03-16T06:13:21.540Z,20.75
2023-03-16T06:15:48.719Z,19.75
2023-03-16T06:18:15.892Z,17.10
2023-03-16T06:20:43.627Z,17.25
2023-03-16T06:23:10.802Z,18.00
2023-03-16T06:25:40.591Z,18.80
2023-03-16T06:28:08.377Z,16.73
2023-03-16T06:30:35.423Z,16.08
2023-03-16T06:33:02.545Z,14.15
2023-03-16T06:35:29.716Z,14.32
2023-03-16T06:37:56.813Z,15.20
2023-03-16T06:40:24.068Z,24.38
2023-03-16T06:42:51.486Z,26.33
2023-03-16T06:45:22.058Z,19.70
2023-03-16T06:47:49.604Z,17.35
2023-03-16T06:50:16.802Z,17.15
2023-03-16T06:52:43.958Z,16.10
2023-03-16T06:55:12.873Z,16.35
2023-03-16T06:57:40.090Z,14.25
2023-03-16T07:00:07.675Z,15.25
2023-03-16T07:02:35.780Z,14.25
2023-03-16T07:05:03.312Z,15.50
2023-03-16T07:07:30.432Z,11.65
2023-03-16T07:09:57.563Z,13.10
2023-03-16T07:12:24.736Z,16.60
2023-03-16T07:14:54.070Z,14.60
2023-03-16T07:17:21.664Z,16.13
2023-03-16T07:19:48.759Z,16.35
2023-03-16T07:22:15.884Z,17.08
2023-03-16T07:24:44.198Z,15.35
2023-03-16T07:27:12.624Z,14.00
2023-03-16T07:29:39.843Z,12.18
2023-03-16T07:32:07.129Z,14.10
2023-03-16T07:34:34.291Z,14.68
2023-03-16T07:37:02.202Z,13.23
2023-03-16T07:39:29.614Z,11.90
2023-03-16T07:41:56.776Z,11.10
2023-03-16T07:44:23.845Z,12.90
2023-03-16T07:46:51.497Z,14.80
2023-03-16T07:49:18.664Z,11.90
2023-03-16T07:51:46.021Z,12.50
2023-03-16T07:54:14.005Z,12.20
2023-03-16T07:56:48.948Z,9.32
2023-03-16T07:59:17.421Z,12.63
2023-03-16T08:01:46.289Z,12.20
2023-03-16T08:04:13.407Z,10.70
2023-03-16T08:06:40.526Z,9.82
2023-03-16T08:09:07.590Z,9.48
2023-03-16T08:11:34.987Z,12.85
2023-03-16T08:14:02.076Z,10.65
2023-03-16T08:16:29.442Z,10.88
2023-03-16T08:18:57.565Z,18.08
2023-03-16T08:21:25.224Z,10.82
2023-03-16T08:23:52.378Z,15.20
2023-03-16T08:26:22.680Z,11.20
2023-03-16T08:28:52.083Z,11.10
2023-03-16T08:31:20.293Z,10.30
2023-03-16T08:33:49.808Z,10.70
2023-03-16T08:36:17.924Z,11.02
2023-03-16T08:39:03.746Z,8.65
2023-03-16T08:41:34.722Z,9.60
2023-03-16T08:44:03.091Z,15.90
2023-03-16T08:46:30.891Z,9.90
2023-03-16T08:48:58.115Z,14.07
2023-03-16T08:51:25.283Z,12.45
2023-03-16T08:53:52.850Z,8.80
2023-03-16T08:56:20.015Z,10.43
2023-03-16T08:58:47.180Z,8.27
2023-03-16T09:01:15.773Z,10.30
2023-03-16T09:03:42.937Z,8.73
2023-03-16T09:06:11.672Z,10.35
2023-03-16T09:08:41.680Z,7.97
2023-03-16T09:11:11.209Z,8.77
2023-03-16T09:13:39.307Z,8.98
2023-03-16T09:16:07.671Z,10.65
2023-03-16T09:18:35.399Z,10.45
2023-03-16T09:21:04.931Z,9.18
2023-03-16T09:23:32.849Z,9.60
2023-03-16T09:26:01.324Z,8.38
2023-03-16T09:28:28.956Z,10.05
2023-03-16T09:33:38.705Z,12.15
2023-03-16T09:36:06.058Z,8.85
2023-03-16T09:38:33.576Z,12.50
2023-03-16T09:41:11.509Z,8.40
2023-03-16T09:43:38.635Z,10.15
2023-03-16T09:46:25.979Z,8.98
2023-03-16T09:48:54.302Z,7.85
2023-03-16T09:51:24.294Z,7.13
2023-03-16T09:53:53.599Z,9.32
2023-03-16T09:56:23.198Z,7.15
2023-03-16T09:58:50.958Z,10.77
2023-03-16T10:01:24.288Z,9.82
2023-03-16T10:04:10.019Z,9.20
2023-03-16T10:06:48.321Z,9.15
2023-03-16T10:09:26.132Z,6.43
2023-03-16T10:11:57.905Z,6.85
2023-03-16T10:14:24.975Z,6.95
2023-03-16T10:17:03.096Z,7.72
2023-03-16T10:19:44.463Z,6.90
2023-03-16T10:22:17.698Z,7.70
2023-03-16T10:24:57.078Z,5.88
2023-03-16T10:27:29.375Z,6.32
2023-03-16T10:29:56.479Z,7.32
2023-03-16T10:32:29.539Z,7.05
2023-03-16T10:35:04.189Z,6.65
2023-03-16T10:37:31.551Z,4.75
2023-03-16T10:40:00.791Z,4.95
2023-03-16T10:42:28.573Z,8.18
2023-03-16T10:45:01.875Z,6.60
2023-03-16T10:47:31.812Z,4.60
2023-03-16T10:49:59.445Z,7.07
2023-03-16T10:52:29.705Z,6.95
2023-03-16T10:55:01.247Z,10.60
2023-03-16T10:57:33.491Z,6.70
2023-03-16T11:00:07.173Z,7.65
2023-03-16T11:02:35.465Z,5.63
2023-03-16T11:05:32.337Z,4.88
2023-03-16T11:08:05.460Z,5.00
2023-03-16T11:10:40.550Z,8.38
2023-03-16T11:13:14.693Z,3.95
2023-03-16T11:15:47.891Z,5.82
2023-03-16T11:18:26.679Z,5.30
2023-03-16T11:20:55.184Z,6.63
2023-03-16T11:23:27.925Z,5.13
2023-03-16T11:28:43.365Z,3.88
2023-03-16T11:31:24.294Z,4.50
2023-03-16T11:33:54.310Z,5.38
2023-03-16T11:36:43.195Z,3.33
2023-03-16T11:39:26.183Z,2.78
2023-03-16T11:44:23.605Z,3.50
2023-03-16T11:46:59.541Z,5.82
2023-03-16T11:49:29.460Z,4.93
2023-03-16T11:52:17.322Z,2.65
2023-03-16T11:54:53.807Z,3.33
2023-03-16T11:57:20.971Z,4.88
2023-03-16T12:00:06.483Z,3.00
2023-03-16T12:02:34.002Z,6.28
2023-03-16T12:05:07.722Z,4.13
2023-03-16T12:07:38.146Z,4.40
2023-03-16T12:10:22.249Z,4.40
2023-03-16T12:12:53.540Z,5.85
2023-03-16T12:15:39.140Z,3.35
2023-03-16T12:18:17.673Z,6.65
2023-03-16T12:21:04.117Z,4.47
2023-03-16T12:23:31.920Z,4.20
2023-03-16T12:26:00.101Z,6.38
2023-03-16T12:28:29.030Z,4.25
2023-03-16T12:31:03.322Z,4.28
2023-03-16T12:33:45.578Z,3.70
2023-03-16T12:36:28.520Z,4.63
2023-03-16T12:41:25.450Z,3.83
2023-03-16T12:43:52.635Z,5.22
2023-03-16T12:46:25.073Z,4.28
2023-03-16T12:48:54.808Z,5.38
2023-03-16T12:51:21.992Z,3.78
2023-03-16T12:53:51.950Z,7.25
2023-03-16T12:56:39.307Z,4.75
2023-03-16T12:59:07.948Z,4.95
2023-03-16T13:01:39.720Z,4.93
2023-03-16T13:04:12.872Z,4.80
2023-03-16T13:06:44.202Z,5.13
2023-03-16T13:09:12.228Z,5.43
2023-03-16T13:11:50.292Z,4.97
2023-03-16T13:14:31.528Z,4.60
2023-03-16T13:17:06.445Z,5.47
2023-03-16T13:19:37.839Z,6.70
2023-03-16T13:22:07.045Z,4.72
2023-03-16T13:24:39.976Z,3.83
2023-03-16T13:27:16.380Z,3.30
2023-03-16T13:29:53.204Z,3.53
2023-03-16T13:32:21.715Z,5.60
2023-03-16T13:34:50.697Z,5.25
2023-03-16T13:37:19.861Z,5.38
2023-03-16T13:39:56.428Z,5.10
2023-03-16T13:42:24.562Z,4.75
2023-03-16T13:44:56.679Z,6.18
2023-03-16T13:47:26.501Z,3.92
2023-03-16T13:50:00.626Z,6.55
2023-03-16T13:52:27.789Z,5.28
2023-03-16T13:54:55.232Z,5.95
2023-03-16T13:57:24.142Z,4.65
2023-03-16T13:59:53.549Z,4.65
2023-03-16T14:02:23.147Z,4.30
2023-03-16T14:04:50.362Z,5.43
2023-03-16T14:07:18.988Z,9.15
2023-03-16T14:09:50.635Z,5.32
2023-03-16T14:12:19.933Z,6.45
2023-03-16T14:14:50.142Z,5.95
2023-03-16T14:17:19.667Z,5.75
2023-03-16T14:19:48.604Z,7.60
2023-03-16T14:22:17.791Z,6.22
2023-03-16T14:24:46.044Z,8.85
2023-03-16T14:27:20.927Z,6.82
2023-03-16T14:29:53.162Z,8.63
2023-03-16T14:32:28.187Z,7.85
2023-03-16T14:35:03.262Z,7.45
2023-03-16T14:37:37.446Z,6.72
2023-03-16T14:40:08.971Z,6.30
2023-03-16T14:42:36.714Z,6.78
2023-03-16T14:45:07.535Z,5.03
2023-03-16T14:47:41.101Z,6.32
2023-03-16T14:50:09.801Z,7.60
2023-03-16T14:52:37.158Z,6.30
2023-03-16T14:55:11.511Z,5.38
2023-03-16T14:57:40.433Z,8.30
2023-03-16T15:00:10.254Z,6.50
2023-03-16T15:02:37.760Z,9.77
2023-03-16T15:05:05.152Z,5.45
2023-03-16T15:07:34.871Z,4.40
2023-03-16T15:10:09.840Z,7.38
2023-03-16T15:12:37.913Z,5.60
2023-03-16T15:15:22.614Z,6.07
2023-03-16T15:17:51.262Z,4.78
2023-03-16T15:20:24.247Z,6.03
2023-03-16T15:22:52.986Z,6.57
2023-03-16T15:25:23.293Z,5.97
2023-03-16T15:27:50.794Z,4.43
2023-03-16T15:30:19.913Z,6.88
2023-03-16T15:32:47.091Z,3.78
2023-03-16T15:35:14.275Z,5.18
2023-03-16T15:37:41.645Z,6.10
2023-03-16T15:40:38.216Z,8.40
2023-03-16T15:43:07.287Z,7.85
2023-03-16T15:45:34.481Z,4.30
2023-03-16T15:48:01.624Z,4.57
2023-03-16T15:50:29.145Z,5.68
2023-03-16T15:52:59.320Z,8.52
2023-03-16T15:55:39.547Z,6.30
2023-03-16T15:58:07.166Z,10.45
2023-03-16T16:00:38.187Z,3.95
2023-03-16T16:03:06.573Z,5.32
2023-03-16T16:05:35.534Z,6.57
2023-03-16T16:08:03.701Z,6.63
2023-03-16T16:10:32.269Z,6.15
2023-03-16T16:13:00.008Z,5.75
2023-03-16T16:15:29.639Z,8.25
2023-03-16T16:18:19.808Z,6.97
2023-03-16T16:20:45.210Z,8.38
2023-03-16T16:23:12.678Z,6.97
2023-03-16T16:25:41.462Z,6.10
2023-03-16T16:28:16.429Z,5.35
2023-03-16T16:30:44.242Z,9.15
2023-03-16T16:33:24.834Z,7.80
2023-03-16T16:35:52.817Z,5.50
2023-03-16T16:38:20.180Z,5.30
2023-03-16T16:40:47.645Z,7.65
2023-03-16T16:43:35.059Z,5.38
2023-03-16T16:46:04.786Z,5.10
2023-03-16T16:48:36.837Z,5.80
2023-03-16T16:51:04.771Z,8.27
2023-03-16T16:53:31.940Z,7.10
2023-03-16T16:55:59.252Z,7.97
2023-03-16T16:58:26.461Z,5.72
2023-03-16T17:00:55.188Z,7.43
2023-03-16T17:03:27.396Z,8.30
2023-03-16T17:05:57.905Z,5.60
2023-03-16T17:08:26.004Z,7.63
2023-03-16T17:10:53.849Z,5.05
2023-03-16T17:13:24.728Z,4.80
2023-03-16T17:15:51.870Z,8.40
2023-03-16T17:18:19.676Z,6.75
2023-03-16T17:20:46.919Z,8.20
2023-03-16T17:23:27.518Z,7.22
2023-03-16T17:25:55.634Z,7.25
2023-03-16T17:28:23.677Z,8.27
2023-03-16T17:30:51.105Z,8.80
2023-03-16T17:33:19.514Z,8.00
2023-03-16T17:35:47.893Z,7.95
2023-03-16T17:38:19.392Z,9.07
2023-03-16T17:40:46.843Z,7.28
2023-03-16T17:43:16.168Z,6.43
2023-03-16T17:45:44.067Z,6.45
2023-03-16T17:48:18.814Z,6.45
2023-03-16T17:50:46.141Z,7.05
2023-03-16T17:53:15.066Z,10.55
2023-03-16T17:55:42.866Z,5.72
2023-03-16T17:58:28.985Z,6.55
2023-03-16T18:00:56.693Z,7.97
2023-03-16T18:03:25.706Z,7.38
2023-03-16T18:05:53.235Z,7.53
2023-03-16T18:08:25.105Z,10.30
2023-03-16T18:10:55.723Z,8.43
2023-03-16T18:13:24.375Z,9.85
2023-03-16T18:15:51.990Z,9.38
2023-03-16T18:18:21.351Z,8.43
2023-03-16T18:20:50.702Z,8.18
2023-03-16T18:23:27.724Z,7.50
2023-03-16T18:25:55.834Z,10.27
2023-03-16T18:28:23.291Z,10.82
2023-03-16T18:30:54.980Z,10.23
2023-03-16T18:33:27.615Z,7.20
2023-03-16T18:35:56.807Z,8.48
2023-03-16T18:38:30.147Z,6.15
2023-03-16T18:40:58.267Z,9.82
2023-03-16T18:43:27.236Z,7.20
2023-03-16T18:45:54.990Z,6.20
2023-03-16T18:48:33.316Z,12.30
2023-03-16T18:51:00.983Z,8.73
2023-03-16T18:53:29.551Z,8.63
2023-03-16T18:55:57.672Z,8.90
2023-03-16T18:58:25.524Z,8.68
2023-03-16T19:00:57.540Z,8.18
2023-03-16T19:03:32.190Z,9.68
2023-03-16T19:06:00.455Z,8.15
2023-03-16T19:08:28.550Z,9.23
2023-03-16T19:11:01.107Z,9.15
2023-03-16T19:13:28.403Z,8.88
2023-03-16T19:15:57.572Z,11.57
2023-03-16T19:18:26.110Z,8.90
2023-03-16T19:20:53.921Z,9.15
2023-03-16T19:23:26.941Z,10.05
2023-03-16T19:25:54.518Z,12.70
2023-03-16T19:28:22.585Z,12.63
2023-03-16T19:30:49.800Z,12.90
2023-03-16T19:33:18.929Z,15.95
2023-03-16T19:35:51.735Z,13.77
2023-03-16T19:38:19.813Z,12.80
2023-03-16T19:40:48.091Z,10.60
2023-03-16T19:43:17.257Z,12.52
2023-03-16T19:45:44.525Z,11.52
2023-03-16T19:48:24.499Z,11.60
2023-03-16T19:50:52.034Z,9.63
2023-03-16T19:53:20.696Z,16.88
2023-03-16T19:55:48.373Z,12.70
2023-03-16T19:58:19.023Z,11.77
2023-03-16T20:00:47.099Z,20.45
2023-03-16T20:03:14.477Z,19.92
2023-03-16T20:05:41.583Z,14.35
2023-03-16T20:08:22.891Z,13.48
2023-03-16T20:10:50.281Z,14.30
2023-03-16T20:13:17.756Z,14.60
2023-03-16T20:15:45.352Z,14.35
2023-03-16T20:18:16.178Z,11.23
2023-03-16T20:20:43.984Z,12.32
2023-03-16T20:23:18.662Z,11.75
2023-03-16T20:25:46.604Z,13.27
2023-03-16T20:28:21.605Z,14.20
2023-03-16T20:30:49.144Z,15.23
2023-03-16T20:33:22.771Z,13.82
2023-03-16T20:35:53.382Z,11.20
2023-03-16T20:38:20.911Z,12.40
2023-03-16T20:40:50.253Z,13.77
2023-03-16T20:43:20.513Z,9.55
2023-03-16T20:45:48.083Z,14.60
2023-03-16T20:48:16.216Z,12.45
2023-03-16T20:50:43.356Z,10.77
2023-03-16T20:53:10.519Z,12.27
2023-03-16T20:55:37.824Z,9.35
2023-03-16T20:58:12.070Z,9.82
2023-03-16T21:00:40.016Z,12.15
2023-03-16T21:03:16.833Z,10.13
2023-03-16T21:05:44.624Z,8.63
2023-03-16T21:08:12.720Z,9.50
2023-03-16T21:10:40.049Z,12.00
2023-03-16T21:13:07.265Z,15.63
2023-03-16T21:15:34.472Z,13.68
2023-03-16T21:18:02.947Z,10.85
2023-03-16T21:20:32.182Z,10.05
2023-03-16T21:22:59.803Z,9.70
2023-03-16T21:25:32.248Z,12.52
2023-03-16T21:28:01.605Z,10.07
2023-03-16T21:30:39.387Z,9.27
2023-03-16T21:33:13.064Z,10.90
2023-03-16T21:35:40.265Z,12.32
2023-03-16T21:38:13.206Z,18.30
2023-03-16T21:40:40.369Z,19.48
2023-03-16T21:43:10.127Z,15.23
2023-03-16T21:45:39.308Z,13.52
2023-03-16T21:48:06.598Z,13.18
2023-03-16T21:50:35.147Z,12.15
2023-03-16T21:53:02.421Z,10.80
2023-03-16T21:55:30.649Z,11.55
2023-03-16T21:57:59.304Z,12.02
2023-03-16T22:00:28.929Z,19.13
2023-03-16T22:02:57.734Z,17.95
2023-03-16T22:05:38.634Z,13.68
2023-03-16T22:08:19.492Z,14.80
2023-03-16T22:10:46.990Z,15.13
2023-03-16T22:13:14.112Z,11.85
2023-03-16T22:15:42.613Z,7.90
2023-03-16T22:18:19.131Z,8.27
2023-03-16T22:20:46.494Z,9.88
2023-03-16T22:23:34.187Z,9.45
2023-03-16T22:26:02.459Z,9.75
2023-03-16T22:28:29.715Z,10.50
2023-03-16T22:30:57.959Z,9.40
2023-03-16T22:33:37.597Z,13.90
2023-03-16T22:36:08.275Z,9.82
2023-03-16T22:38:36.452Z,11.15
2023-03-16T22:41:03.588Z,9.90
2023-03-16T22:43:31.996Z,8.60
2023-03-16T22:45:59.767Z,9.60
2023-03-16T22:48:27.746Z,10.48
2023-03-16T22:50:55.488Z,8.38
2023-03-16T22:53:29.014Z,7.30
2023-03-16T22:55:57.192Z,8.50
2023-03-16T22:58:28.294Z,8.13
2023-03-16T23:00:56.169Z,7.82
2023-03-16T23:03:23.728Z,6.40
2023-03-16T23:05:51.677Z,7.75
2023-03-16T23:08:20.297Z,8.35
2023-03-16T23:10:47.700Z,7.82
2023-03-16T23:13:18.551Z,9.02
2023-03-16T23:15:46.631Z,7.88
2023-03-16T23:18:20.813Z,5.85
2023-03-16T23:20:48.766Z,6.55
2023-03-16T23:23:16.500Z,6.88
2023-03-16T23:25:44.757Z,9.00
2023-03-16T23:28:13.176Z,5.85
2023-03-16T23:30:40.642Z,8.65
2023-03-16T23:33:07.854Z,7.00
2023-03-16T23:35:35.267Z,7.75
2023-03-16T23:38:02.938Z,7.95
2023-03-16T23:40:31.011Z,6.03
2023-03-16T23:43:02.041Z,6.60
2023-03-16T23:45:34.276Z,5.43
2023-03-16T23:48:03.068Z,7.07
2023-03-16T23:50:31.913Z,5.93
2023-03-16T23:52:59.412Z,6.60
2023-03-16T23:55:26.982Z,5.60
2023-03-16T23:57:54.159Z,7.00
